sensor_id;sensor_type;location;lat;lon;timestamp;pressure;altitude;pressure_sealevel;temperature;humidity
57024;BME280;42916;54.346;18.562;2023-04-28T00:01:11;100732.14;;;3.30;66.54
57024;BME280;42916;54.346;18.562;2023-04-28T00:03:38;100732.79;;;3.29;66.59
57024;BME280;42916;54.346;18.562;2023-04-28T00:06:04;100735.70;;;3.28;66.59
57024;BME280;42916;54.346;18.562;2023-04-28T00:08:31;100734.80;;;3.26;66.21
57024;BME280;42916;54.346;18.562;2023-04-28T00:10:58;100732.02;;;3.24;66.37
57024;BME280;42916;54.346;18.562;2023-04-28T00:13:26;100734.29;;;3.22;66.50
57024;BME280;42916;54.346;18.562;2023-04-28T00:15:53;100734.23;;;3.19;66.77
57024;BME280;42916;54.346;18.562;2023-04-28T00:18:20;100732.97;;;3.17;66.45
57024;BME280;42916;54.346;18.562;2023-04-28T00:20:47;100734.70;;;3.15;66.89
57024;BME280;42916;54.346;18.562;2023-04-28T00:23:14;100733.40;;;3.12;66.83
57024;BME280;42916;54.346;18.562;2023-04-28T00:25:41;100734.21;;;3.10;66.92
57024;BME280;42916;54.346;18.562;2023-04-28T00:28:08;100737.02;;;3.08;66.55
57024;BME280;42916;54.346;18.562;2023-04-28T00:30:34;100736.83;;;3.05;66.47
57024;BME280;42916;54.346;18.562;2023-04-28T00:33:01;100743.50;;;3.06;66.90
57024;BME280;42916;54.346;18.562;2023-04-28T00:35:28;100741.40;;;3.07;66.94
57024;BME280;42916;54.346;18.562;2023-04-28T00:37:55;100747.23;;;3.08;67.26
57024;BME280;42916;54.346;18.562;2023-04-28T00:40:22;100742.63;;;3.07;67.07
57024;BME280;42916;54.346;18.562;2023-04-28T00:42:48;100749.83;;;3.06;67.16
57024;BME280;42916;54.346;18.562;2023-04-28T00:45:15;100749.48;;;3.04;66.84
57024;BME280;42916;54.346;18.562;2023-04-28T00:47:42;100747.48;;;3.03;67.06
57024;BME280;42916;54.346;18.562;2023-04-28T00:50:09;100740.58;;;3.01;67.66
57024;BME280;42916;54.346;18.562;2023-04-28T00:52:37;100743.29;;;2.99;67.63
57024;BME280;42916;54.346;18.562;2023-04-28T00:55:04;100741.91;;;2.96;67.46
57024;BME280;42916;54.346;18.562;2023-04-28T00:57:31;100742.63;;;2.93;67.39
57024;BME280;42916;54.346;18.562;2023-04-28T00:59:59;100741.13;;;2.91;67.79
57024;BME280;42916;54.346;18.562;2023-04-28T01:02:26;100741.60;;;2.89;67.78
57024;BME280;42916;54.346;18.562;2023-04-28T01:04:56;100744.01;;;2.88;67.99
57024;BME280;42916;54.346;18.562;2023-04-28T01:07:25;100739.86;;;2.88;68.23
57024;BME280;42916;54.346;18.562;2023-04-28T01:09:52;100742.55;;;2.88;68.49
57024;BME280;42916;54.346;18.562;2023-04-28T01:12:23;100739.70;;;2.87;68.70
57024;BME280;42916;54.346;18.562;2023-04-28T01:14:52;100741.00;;;2.85;68.75
57024;BME280;42916;54.346;18.562;2023-04-28T01:17:19;100741.98;;;2.83;68.60
57024;BME280;42916;54.346;18.562;2023-04-28T01:19:46;100740.15;;;2.80;68.96
57024;BME280;42916;54.346;18.562;2023-04-28T01:22:13;100739.67;;;2.78;68.87
57024;BME280;42916;54.346;18.562;2023-04-28T01:24:42;100738.53;;;2.75;69.04
57024;BME280;42916;54.346;18.562;2023-04-28T01:27:10;100742.31;;;2.72;69.28
57024;BME280;42916;54.346;18.562;2023-04-28T01:29:38;100742.00;;;2.69;69.44
57024;BME280;42916;54.346;18.562;2023-04-28T01:32:05;100745.48;;;2.66;69.67
57024;BME280;42916;54.346;18.562;2023-04-28T01:34:33;100743.31;;;2.67;69.67
57024;BME280;42916;54.346;18.562;2023-04-28T01:36:59;100746.64;;;2.66;69.75
57024;BME280;42916;54.346;18.562;2023-04-28T01:39:29;100745.44;;;2.65;69.94
57024;BME280;42916;54.346;18.562;2023-04-28T01:41:56;100748.77;;;2.63;70.15
57024;BME280;42916;54.346;18.562;2023-04-28T01:44:22;100744.68;;;2.62;70.35
57024;BME280;42916;54.346;18.562;2023-04-28T01:46:49;100746.11;;;2.61;70.86
57024;BME280;42916;54.346;18.562;2023-04-28T01:49:16;100743.37;;;2.59;71.15
57024;BME280;42916;54.346;18.562;2023-04-28T01:51:42;100743.38;;;2.56;70.99
57024;BME280;42916;54.346;18.562;2023-04-28T01:54:09;100747.37;;;2.53;71.42
57024;BME280;42916;54.346;18.562;2023-04-28T01:56:36;100744.89;;;2.48;71.28
57024;BME280;42916;54.346;18.562;2023-04-28T01:59:03;100746.31;;;2.45;71.15
57024;BME280;42916;54.346;18.562;2023-04-28T02:01:30;100750.55;;;2.44;71.78
57024;BME280;42916;54.346;18.562;2023-04-28T02:03:57;100743.32;;;2.43;71.74
57024;BME280;42916;54.346;18.562;2023-04-28T02:06:23;100743.52;;;2.43;71.72
57024;BME280;42916;54.346;18.562;2023-04-28T02:08:50;100743.30;;;2.42;72.07
57024;BME280;42916;54.346;18.562;2023-04-28T02:11:17;100743.00;;;2.40;72.41
57024;BME280;42916;54.346;18.562;2023-04-28T02:13:44;100743.04;;;2.39;72.78
57024;BME280;42916;54.346;18.562;2023-04-28T02:16:11;100743.67;;;2.37;72.78
57024;BME280;42916;54.346;18.562;2023-04-28T02:18:38;100740.61;;;2.35;72.54
57024;BME280;42916;54.346;18.562;2023-04-28T02:21:09;100742.02;;;2.34;73.27
57024;BME280;42916;54.346;18.562;2023-04-28T02:23:37;100742.14;;;2.32;72.87
57024;BME280;42916;54.346;18.562;2023-04-28T02:26:05;100744.03;;;2.31;73.73
57024;BME280;42916;54.346;18.562;2023-04-28T02:28:32;100741.61;;;2.32;74.13
57024;BME280;42916;54.346;18.562;2023-04-28T02:31:06;100744.05;;;2.34;73.93
57024;BME280;42916;54.346;18.562;2023-04-28T02:33:34;100743.17;;;2.35;74.17
57024;BME280;42916;54.346;18.562;2023-04-28T02:36:03;100740.90;;;2.35;74.57
57024;BME280;42916;54.346;18.562;2023-04-28T02:38:30;100743.90;;;2.35;74.70
57024;BME280;42916;54.346;18.562;2023-04-28T02:40:58;100743.20;;;2.35;74.66
57024;BME280;42916;54.346;18.562;2023-04-28T02:43:26;100744.59;;;2.34;74.45
57024;BME280;42916;54.346;18.562;2023-04-28T02:45:53;100745.41;;;2.32;74.81
57024;BME280;42916;54.346;18.562;2023-04-28T02:48:20;100745.58;;;2.29;74.34
57024;BME280;42916;54.346;18.562;2023-04-28T02:50:47;100752.14;;;2.28;74.40
57024;BME280;42916;54.346;18.562;2023-04-28T02:53:14;100752.64;;;2.28;74.41
57024;BME280;42916;54.346;18.562;2023-04-28T02:55:41;100747.04;;;2.30;75.18
57024;BME280;42916;54.346;18.562;2023-04-28T02:58:08;100747.92;;;2.31;75.45
57024;BME280;42916;54.346;18.562;2023-04-28T03:00:35;100747.20;;;2.30;75.03
57024;BME280;42916;54.346;18.562;2023-04-28T03:03:02;100745.82;;;2.28;74.94
57024;BME280;42916;54.346;18.562;2023-04-28T03:05:29;100746.18;;;2.26;74.86
57024;BME280;42916;54.346;18.562;2023-04-28T03:07:55;100747.56;;;2.24;74.98
57024;BME280;42916;54.346;18.562;2023-04-28T03:10:23;100747.96;;;2.22;75.42
57024;BME280;42916;54.346;18.562;2023-04-28T03:12:50;100745.59;;;2.21;75.29
57024;BME280;42916;54.346;18.562;2023-04-28T03:15:18;100747.95;;;2.21;75.15
57024;BME280;42916;54.346;18.562;2023-04-28T03:17:45;100747.19;;;2.20;75.25
57024;BME280;42916;54.346;18.562;2023-04-28T03:20:12;100745.66;;;2.19;75.17
57024;BME280;42916;54.346;18.562;2023-04-28T03:22:39;100747.04;;;2.17;75.42
57024;BME280;42916;54.346;18.562;2023-04-28T03:25:06;100745.48;;;2.15;75.75
57024;BME280;42916;54.346;18.562;2023-04-28T03:27:36;100749.23;;;2.12;75.96
57024;BME280;42916;54.346;18.562;2023-04-28T03:30:04;100748.50;;;2.09;75.74
57024;BME280;42916;54.346;18.562;2023-04-28T03:32:31;100748.34;;;2.06;75.57
57024;BME280;42916;54.346;18.562;2023-04-28T03:34:58;100754.71;;;2.04;76.03
57024;BME280;42916;54.346;18.562;2023-04-28T03:37:25;100751.32;;;2.04;75.82
57024;BME280;42916;54.346;18.562;2023-04-28T03:39:51;100753.60;;;2.04;75.93
57024;BME280;42916;54.346;18.562;2023-04-28T03:42:18;100751.30;;;2.04;76.12
57024;BME280;42916;54.346;18.562;2023-04-28T03:45:03;100754.21;;;2.04;76.63
57024;BME280;42916;54.346;18.562;2023-04-28T03:47:30;100753.45;;;2.02;76.88
57024;BME280;42916;54.346;18.562;2023-04-28T03:49:57;100750.10;;;2.02;77.01
57024;BME280;42916;54.346;18.562;2023-04-28T03:52:24;100752.91;;;2.02;76.68
57024;BME280;42916;54.346;18.562;2023-04-28T03:54:51;100751.36;;;2.03;76.76
57024;BME280;42916;54.346;18.562;2023-04-28T03:57:19;100754.84;;;2.07;76.86
57024;BME280;42916;54.346;18.562;2023-04-28T03:59:45;100753.04;;;2.14;77.25
57024;BME280;42916;54.346;18.562;2023-04-28T04:02:12;100758.34;;;2.21;77.17
57024;BME280;42916;54.346;18.562;2023-04-28T04:04:39;100756.17;;;2.27;77.45
57024;BME280;42916;54.346;18.562;2023-04-28T04:07:06;100753.30;;;2.34;77.40
57024;BME280;42916;54.346;18.562;2023-04-28T04:09:32;100757.64;;;2.41;77.36
57024;BME280;42916;54.346;18.562;2023-04-28T04:11:59;100755.66;;;2.47;76.81
57024;BME280;42916;54.346;18.562;2023-04-28T04:14:27;100761.55;;;2.52;76.99
57024;BME280;42916;54.346;18.562;2023-04-28T04:16:54;100763.08;;;2.63;77.48
57024;BME280;42916;54.346;18.562;2023-04-28T04:19:21;100770.97;;;2.74;77.74
57024;BME280;42916;54.346;18.562;2023-04-28T04:21:52;100769.58;;;2.85;77.37
57024;BME280;42916;54.346;18.562;2023-04-28T04:24:19;100773.89;;;2.94;77.43
57024;BME280;42916;54.346;18.562;2023-04-28T04:26:46;100774.56;;;3.02;77.43
57024;BME280;42916;54.346;18.562;2023-04-28T04:29:39;100774.92;;;3.12;77.05
57024;BME280;42916;54.346;18.562;2023-04-28T04:32:11;100778.95;;;3.20;76.71
57024;BME280;42916;54.346;18.562;2023-04-28T04:34:39;100778.83;;;3.27;76.63
57024;BME280;42916;54.346;18.562;2023-04-28T04:37:06;100779.79;;;3.36;76.38
57024;BME280;42916;54.346;18.562;2023-04-28T04:39:33;100778.77;;;3.48;76.38
57024;BME280;42916;54.346;18.562;2023-04-28T04:42:01;100783.05;;;3.58;76.32
57024;BME280;42916;54.346;18.562;2023-04-28T04:44:43;100779.90;;;3.68;76.07
57024;BME280;42916;54.346;18.562;2023-04-28T04:47:16;100780.73;;;3.77;75.84
57024;BME280;42916;54.346;18.562;2023-04-28T04:49:47;100779.52;;;3.85;75.63
57024;BME280;42916;54.346;18.562;2023-04-28T04:52:14;100778.48;;;3.91;75.59
57024;BME280;42916;54.346;18.562;2023-04-28T04:54:40;100784.07;;;4.00;75.19
57024;BME280;42916;54.346;18.562;2023-04-28T04:57:10;100785.80;;;4.08;75.32
57024;BME280;42916;54.346;18.562;2023-04-28T05:00:04;100785.50;;;4.20;75.18
57024;BME280;42916;54.346;18.562;2023-04-28T05:02:33;100787.69;;;4.32;74.96
57024;BME280;42916;54.346;18.562;2023-04-28T05:05:00;100785.66;;;4.43;74.76
57024;BME280;42916;54.346;18.562;2023-04-28T05:07:27;100785.64;;;4.53;74.60
57024;BME280;42916;54.346;18.562;2023-04-28T05:09:54;100788.91;;;4.61;74.31
57024;BME280;42916;54.346;18.562;2023-04-28T05:12:21;100788.75;;;4.68;74.01
57024;BME280;42916;54.346;18.562;2023-04-28T05:14:49;100795.39;;;4.77;73.86
57024;BME280;42916;54.346;18.562;2023-04-28T05:17:15;100795.06;;;4.84;73.54
57024;BME280;42916;54.346;18.562;2023-04-28T05:19:42;100794.22;;;4.92;73.41
57024;BME280;42916;54.346;18.562;2023-04-28T05:22:10;100793.55;;;5.00;73.32
57024;BME280;42916;54.346;18.562;2023-04-28T05:24:37;100792.05;;;5.08;73.07
57024;BME280;42916;54.346;18.562;2023-04-28T05:27:04;100790.88;;;5.15;72.97
57024;BME280;42916;54.346;18.562;2023-04-28T05:29:31;100793.70;;;5.23;72.59
57024;BME280;42916;54.346;18.562;2023-04-28T05:31:58;100795.41;;;5.32;72.62
57024;BME280;42916;54.346;18.562;2023-04-28T05:34:25;100796.98;;;5.42;72.39
57024;BME280;42916;54.346;18.562;2023-04-28T05:36:52;100795.83;;;5.53;72.24
57024;BME280;42916;54.346;18.562;2023-04-28T05:39:23;100798.54;;;5.64;72.22
57024;BME280;42916;54.346;18.562;2023-04-28T05:41:50;100801.81;;;5.74;72.03
57024;BME280;42916;54.346;18.562;2023-04-28T05:44:17;100801.86;;;5.85;71.83
57024;BME280;42916;54.346;18.562;2023-04-28T05:46:45;100803.81;;;5.94;71.40
57024;BME280;42916;54.346;18.562;2023-04-28T05:49:11;100799.91;;;6.01;71.12
57024;BME280;42916;54.346;18.562;2023-04-28T05:51:39;100803.27;;;6.10;70.97
57024;BME280;42916;54.346;18.562;2023-04-28T05:54:05;100802.86;;;6.18;70.56
57024;BME280;42916;54.346;18.562;2023-04-28T05:56:36;100798.63;;;6.22;69.98
57024;BME280;42916;54.346;18.562;2023-04-28T05:59:03;100800.82;;;6.26;69.66
57024;BME280;42916;54.346;18.562;2023-04-28T06:01:31;100800.50;;;6.31;69.62
57024;BME280;42916;54.346;18.562;2023-04-28T06:03:57;100798.54;;;6.38;69.69
57024;BME280;42916;54.346;18.562;2023-04-28T06:06:25;100799.83;;;6.46;69.00
57024;BME280;42916;54.346;18.562;2023-04-28T06:08:53;100799.27;;;6.53;69.10
57024;BME280;42916;54.346;18.562;2023-04-28T06:11:20;100799.75;;;6.61;68.94
57024;BME280;42916;54.346;18.562;2023-04-28T06:13:49;100796.11;;;6.70;68.92
57024;BME280;42916;54.346;18.562;2023-04-28T06:16:18;100798.40;;;6.80;68.86
57024;BME280;42916;54.346;18.562;2023-04-28T06:18:45;100799.48;;;6.87;68.09
57024;BME280;42916;54.346;18.562;2023-04-28T06:21:12;100801.45;;;6.95;67.83
57024;BME280;42916;54.346;18.562;2023-04-28T06:23:39;100807.42;;;7.03;67.37
57024;BME280;42916;54.346;18.562;2023-04-28T06:26:08;100803.74;;;7.08;66.87
57024;BME280;42916;54.346;18.562;2023-04-28T06:28:38;100802.69;;;7.14;65.81
57024;BME280;42916;54.346;18.562;2023-04-28T06:31:08;100800.86;;;7.23;66.42
57024;BME280;42916;54.346;18.562;2023-04-28T06:33:34;100798.32;;;7.32;65.22
57024;BME280;42916;54.346;18.562;2023-04-28T06:36:02;100795.20;;;7.39;65.09
57024;BME280;42916;54.346;18.562;2023-04-28T06:38:29;100796.48;;;7.47;65.14
57024;BME280;42916;54.346;18.562;2023-04-28T06:40:56;100795.72;;;7.56;64.72
57024;BME280;42916;54.346;18.562;2023-04-28T06:43:23;100794.88;;;7.65;64.16
57024;BME280;42916;54.346;18.562;2023-04-28T06:45:59;100793.30;;;7.71;62.91
57024;BME280;42916;54.346;18.562;2023-04-28T06:48:26;100794.84;;;7.75;62.62
57024;BME280;42916;54.346;18.562;2023-04-28T06:50:53;100796.27;;;7.80;61.58
57024;BME280;42916;54.346;18.562;2023-04-28T06:53:22;100791.69;;;7.81;60.76
57024;BME280;42916;54.346;18.562;2023-04-28T06:55:49;100792.16;;;7.86;61.38
57024;BME280;42916;54.346;18.562;2023-04-28T06:58:15;100793.92;;;7.91;60.11
57024;BME280;42916;54.346;18.562;2023-04-28T07:00:42;100794.92;;;7.96;60.45
57024;BME280;42916;54.346;18.562;2023-04-28T07:03:09;100791.98;;;8.03;60.38
57024;BME280;42916;54.346;18.562;2023-04-28T07:05:36;100797.49;;;8.12;59.96
57024;BME280;42916;54.346;18.562;2023-04-28T07:08:03;100797.72;;;8.17;58.96
57024;BME280;42916;54.346;18.562;2023-04-28T07:10:30;100791.66;;;8.21;59.26
57024;BME280;42916;54.346;18.562;2023-04-28T07:12:57;100787.52;;;8.24;58.35
57024;BME280;42916;54.346;18.562;2023-04-28T07:15:24;100787.95;;;8.33;58.74
57024;BME280;42916;54.346;18.562;2023-04-28T07:17:51;100789.77;;;8.41;58.69
57024;BME280;42916;54.346;18.562;2023-04-28T07:20:18;100792.83;;;8.50;57.73
57024;BME280;42916;54.346;18.562;2023-04-28T07:22:45;100798.38;;;8.53;55.79
57024;BME280;42916;54.346;18.562;2023-04-28T07:25:12;100790.45;;;8.46;55.28
57024;BME280;42916;54.346;18.562;2023-04-28T07:27:38;100789.44;;;8.47;54.29
57024;BME280;42916;54.346;18.562;2023-04-28T07:30:06;100787.64;;;8.48;55.29
57024;BME280;42916;54.346;18.562;2023-04-28T07:32:33;100780.08;;;8.54;54.73
57024;BME280;42916;54.346;18.562;2023-04-28T07:34:59;100773.84;;;8.58;54.45
57024;BME280;42916;54.346;18.562;2023-04-28T07:37:27;100769.64;;;8.64;54.83
57024;BME280;42916;54.346;18.562;2023-04-28T07:39:55;100775.08;;;8.78;54.46
57024;BME280;42916;54.346;18.562;2023-04-28T07:42:22;100770.03;;;8.87;54.13
57024;BME280;42916;54.346;18.562;2023-04-28T07:44:49;100773.52;;;8.88;52.26
57024;BME280;42916;54.346;18.562;2023-04-28T07:47:15;100770.47;;;8.82;52.44
57024;BME280;42916;54.346;18.562;2023-04-28T07:49:42;100771.77;;;8.78;52.45
57024;BME280;42916;54.346;18.562;2023-04-28T07:52:09;100770.14;;;8.76;52.34
57024;BME280;42916;54.346;18.562;2023-04-28T07:54:36;100767.63;;;8.81;52.57
57024;BME280;42916;54.346;18.562;2023-04-28T07:57:02;100762.54;;;8.91;52.38
57024;BME280;42916;54.346;18.562;2023-04-28T07:59:34;100766.92;;;9.00;52.16
57024;BME280;42916;54.346;18.562;2023-04-28T08:02:01;100762.67;;;9.01;51.24
57024;BME280;42916;54.346;18.562;2023-04-28T08:04:28;100760.52;;;9.04;50.74
57024;BME280;42916;54.346;18.562;2023-04-28T08:06:56;100760.27;;;9.13;51.10
57024;BME280;42916;54.346;18.562;2023-04-28T08:09:23;100764.73;;;9.18;50.08
57024;BME280;42916;54.346;18.562;2023-04-28T08:11:50;100762.52;;;9.20;49.53
57024;BME280;42916;54.346;18.562;2023-04-28T08:14:17;100766.98;;;9.29;49.19
57024;BME280;42916;54.346;18.562;2023-04-28T08:16:43;100753.66;;;9.38;48.79
57024;BME280;42916;54.346;18.562;2023-04-28T08:19:12;100760.55;;;9.53;49.60
57024;BME280;42916;54.346;18.562;2023-04-28T08:21:39;100761.63;;;9.74;49.19
57024;BME280;42916;54.346;18.562;2023-04-28T08:24:05;100758.86;;;9.96;48.93
57024;BME280;42916;54.346;18.562;2023-04-28T08:26:33;100759.26;;;10.18;48.10
57024;BME280;42916;54.346;18.562;2023-04-28T08:29:00;100758.14;;;10.35;47.47
57024;BME280;42916;54.346;18.562;2023-04-28T08:31:27;100759.16;;;10.56;47.99
57024;BME280;42916;54.346;18.562;2023-04-28T08:33:54;100757.46;;;10.76;47.32
57024;BME280;42916;54.346;18.562;2023-04-28T08:36:20;100755.57;;;10.87;46.84
57024;BME280;42916;54.346;18.562;2023-04-28T08:38:49;100756.13;;;10.96;46.42
57024;BME280;42916;54.346;18.562;2023-04-28T08:41:16;100754.67;;;11.08;46.25
57024;BME280;42916;54.346;18.562;2023-04-28T08:43:44;100751.70;;;11.21;46.18
57024;BME280;42916;54.346;18.562;2023-04-28T08:46:13;100759.36;;;11.26;45.21
57024;BME280;42916;54.346;18.562;2023-04-28T08:48:42;100754.55;;;11.21;45.11
57024;BME280;42916;54.346;18.562;2023-04-28T08:51:15;100751.02;;;11.16;44.29
57024;BME280;42916;54.346;18.562;2023-04-28T08:53:49;100753.35;;;11.21;44.05
57024;BME280;42916;54.346;18.562;2023-04-28T08:56:17;100744.89;;;11.28;44.30
57024;BME280;42916;54.346;18.562;2023-04-28T08:58:45;100744.86;;;11.38;43.84
57024;BME280;42916;54.346;18.562;2023-04-28T09:01:13;100745.81;;;11.52;43.54
57024;BME280;42916;54.346;18.562;2023-04-28T09:03:39;100739.64;;;11.57;42.98
57024;BME280;42916;54.346;18.562;2023-04-28T09:06:06;100743.41;;;11.48;42.89
57024;BME280;42916;54.346;18.562;2023-04-28T09:08:33;100751.40;;;11.34;42.51
57024;BME280;42916;54.346;18.562;2023-04-28T09:11:10;100750.90;;;11.14;42.55
57024;BME280;42916;54.346;18.562;2023-04-28T09:13:40;100750.29;;;10.87;42.39
57024;BME280;42916;54.346;18.562;2023-04-28T09:16:06;100754.91;;;10.66;42.75
57024;BME280;42916;54.346;18.562;2023-04-28T09:18:33;100754.91;;;10.60;43.61
57024;BME280;42916;54.346;18.562;2023-04-28T09:21:09;100757.63;;;10.63;43.74
57024;BME280;42916;54.346;18.562;2023-04-28T09:23:47;100754.29;;;10.68;44.01
57024;BME280;42916;54.346;18.562;2023-04-28T09:26:14;100757.34;;;10.69;43.74
57024;BME280;42916;54.346;18.562;2023-04-28T09:28:41;100752.42;;;10.71;44.03
57024;BME280;42916;54.346;18.562;2023-04-28T09:31:24;100748.14;;;10.75;43.95
57024;BME280;42916;54.346;18.562;2023-04-28T09:33:57;100748.28;;;10.81;44.16
57024;BME280;42916;54.346;18.562;2023-04-28T09:36:28;100751.90;;;10.86;44.20
57024;BME280;42916;54.346;18.562;2023-04-28T09:38:57;100757.23;;;10.86;43.81
57024;BME280;42916;54.346;18.562;2023-04-28T09:41:38;100754.08;;;10.82;43.16
57024;BME280;42916;54.346;18.562;2023-04-28T09:44:16;100753.91;;;10.65;42.90
57024;BME280;42916;54.346;18.562;2023-04-28T09:46:44;100754.68;;;10.63;43.14
57024;BME280;42916;54.346;18.562;2023-04-28T09:49:12;100751.84;;;10.55;42.84
57024;BME280;42916;54.346;18.562;2023-04-28T09:51:40;100752.08;;;10.44;42.17
57024;BME280;42916;54.346;18.562;2023-04-28T09:54:07;100743.23;;;10.27;41.67
57024;BME280;42916;54.346;18.562;2023-04-28T09:56:34;100741.23;;;10.14;42.20
57024;BME280;42916;54.346;18.562;2023-04-28T09:59:04;100738.29;;;10.06;42.76
57024;BME280;42916;54.346;18.562;2023-04-28T10:01:37;100735.31;;;10.26;43.15
57024;BME280;42916;54.346;18.562;2023-04-28T10:04:07;100730.52;;;10.55;43.08
57024;BME280;42916;54.346;18.562;2023-04-28T10:06:34;100730.50;;;10.78;43.29
57024;BME280;42916;54.346;18.562;2023-04-28T10:09:04;100727.27;;;11.07;43.13
57024;BME280;42916;54.346;18.562;2023-04-28T10:11:32;100721.36;;;11.33;43.00
57024;BME280;42916;54.346;18.562;2023-04-28T10:13:59;100726.10;;;11.54;42.92
57024;BME280;42916;54.346;18.562;2023-04-28T10:16:29;100720.84;;;11.57;42.47
57024;BME280;42916;54.346;18.562;2023-04-28T10:18:56;100720.71;;;11.55;42.36
57024;BME280;42916;54.346;18.562;2023-04-28T10:21:25;100720.16;;;11.58;42.29
57024;BME280;42916;54.346;18.562;2023-04-28T10:29:24;100723.42;;;11.62;41.31
57024;BME280;42916;54.346;18.562;2023-04-28T10:38:19;100719.27;;;11.56;40.78
57024;BME280;42916;54.346;18.562;2023-04-28T10:40:52;100718.33;;;11.63;41.04
57024;BME280;42916;54.346;18.562;2023-04-28T10:45:59;100721.10;;;11.63;41.05
57024;BME280;42916;54.346;18.562;2023-04-28T10:56:25;100720.35;;;11.64;41.18
57024;BME280;42916;54.346;18.562;2023-04-28T10:58:59;100724.06;;;11.62;40.71
57024;BME280;42916;54.346;18.562;2023-04-28T11:01:30;100720.83;;;11.55;40.87
57024;BME280;42916;54.346;18.562;2023-04-28T11:04:04;100715.27;;;11.59;40.66
57024;BME280;42916;54.346;18.562;2023-04-28T11:06:45;100715.95;;;11.56;41.02
57024;BME280;42916;54.346;18.562;2023-04-28T11:19:28;100699.52;;;11.97;40.77
57024;BME280;42916;54.346;18.562;2023-04-28T11:21:57;100705.23;;;12.20;39.95
57024;BME280;42916;54.346;18.562;2023-04-28T11:24:25;100705.61;;;12.36;39.83
57024;BME280;42916;54.346;18.562;2023-04-28T11:26:52;100698.38;;;12.74;39.65
57024;BME280;42916;54.346;18.562;2023-04-28T11:29:33;100698.41;;;12.88;39.07
57024;BME280;42916;54.346;18.562;2023-04-28T11:32:02;100704.52;;;12.87;38.43
57024;BME280;42916;54.346;18.562;2023-04-28T11:34:29;100704.13;;;12.85;38.44
57024;BME280;42916;54.346;18.562;2023-04-28T11:36:56;100705.65;;;12.92;37.83
57024;BME280;42916;54.346;18.562;2023-04-28T11:39:28;100700.80;;;12.84;38.09
57024;BME280;42916;54.346;18.562;2023-04-28T11:41:56;100698.23;;;12.77;38.29
57024;BME280;42916;54.346;18.562;2023-04-28T11:44:26;100702.48;;;12.76;38.30
57024;BME280;42916;54.346;18.562;2023-04-28T11:46:57;100699.48;;;12.77;37.57
57024;BME280;42916;54.346;18.562;2023-04-28T11:49:30;100701.06;;;12.75;37.72
57024;BME280;42916;54.346;18.562;2023-04-28T11:52:05;100697.32;;;12.72;37.94
57024;BME280;42916;54.346;18.562;2023-04-28T11:54:33;100696.34;;;12.78;38.23
57024;BME280;42916;54.346;18.562;2023-04-28T11:57:00;100698.33;;;12.91;37.56
57024;BME280;42916;54.346;18.562;2023-04-28T11:59:35;100696.02;;;12.91;37.29
57024;BME280;42916;54.346;18.562;2023-04-28T12:02:04;100696.41;;;12.99;37.40
57024;BME280;42916;54.346;18.562;2023-04-28T12:04:37;100690.66;;;13.33;37.26
57024;BME280;42916;54.346;18.562;2023-04-28T12:07:17;100686.11;;;13.57;37.53
57024;BME280;42916;54.346;18.562;2023-04-28T12:09:47;100686.44;;;14.10;37.58
57024;BME280;42916;54.346;18.562;2023-04-28T12:12:27;100689.85;;;14.49;37.28
57024;BME280;42916;54.346;18.562;2023-04-28T12:17:27;100681.71;;;14.68;35.77
57024;BME280;42916;54.346;18.562;2023-04-28T12:19:56;100681.04;;;15.01;36.44
57024;BME280;42916;54.346;18.562;2023-04-28T12:22:24;100678.69;;;15.48;34.85
57024;BME280;42916;54.346;18.562;2023-04-28T12:25:11;100674.88;;;15.95;35.40
57024;BME280;42916;54.346;18.562;2023-04-28T12:27:39;100671.88;;;16.64;34.28
57024;BME280;42916;54.346;18.562;2023-04-28T12:32:46;100667.48;;;16.79;33.05
57024;BME280;42916;54.346;18.562;2023-04-28T12:35:14;100667.09;;;16.83;32.54
57024;BME280;42916;54.346;18.562;2023-04-28T12:37:42;100667.23;;;17.00;32.93
57024;BME280;42916;54.346;18.562;2023-04-28T12:40:09;100672.19;;;17.24;32.77
57024;BME280;42916;54.346;18.562;2023-04-28T12:42:37;100667.23;;;17.25;31.60
57024;BME280;42916;54.346;18.562;2023-04-28T12:45:05;100662.61;;;17.06;31.78
57024;BME280;42916;54.346;18.562;2023-04-28T12:47:32;100655.52;;;17.05;32.14
57024;BME280;42916;54.346;18.562;2023-04-28T12:49:59;100654.81;;;17.01;32.34
57024;BME280;42916;54.346;18.562;2023-04-28T12:52:26;100656.38;;;16.69;31.89
57024;BME280;42916;54.346;18.562;2023-04-28T12:54:53;100655.96;;;16.15;32.07
57024;BME280;42916;54.346;18.562;2023-04-28T12:57:20;100654.46;;;15.67;32.31
57024;BME280;42916;54.346;18.562;2023-04-28T12:59:47;100652.27;;;15.44;32.97
57024;BME280;42916;54.346;18.562;2023-04-28T13:02:14;100649.27;;;15.41;33.55
57024;BME280;42916;54.346;18.562;2023-04-28T13:04:41;100651.02;;;15.29;33.46
57024;BME280;42916;54.346;18.562;2023-04-28T13:07:08;100644.69;;;15.08;32.93
57024;BME280;42916;54.346;18.562;2023-04-28T13:09:35;100645.42;;;14.82;33.22
57024;BME280;42916;54.346;18.562;2023-04-28T13:12:03;100642.13;;;14.61;33.14
57024;BME280;42916;54.346;18.562;2023-04-28T13:14:30;100642.08;;;14.42;32.89
57024;BME280;42916;54.346;18.562;2023-04-28T13:16:57;100642.46;;;14.29;33.29
57024;BME280;42916;54.346;18.562;2023-04-28T13:19:24;100638.02;;;14.33;33.46
57024;BME280;42916;54.346;18.562;2023-04-28T13:21:51;100630.85;;;14.34;33.60
57024;BME280;42916;54.346;18.562;2023-04-28T13:24:18;100630.90;;;14.40;33.62
57024;BME280;42916;54.346;18.562;2023-04-28T13:26:44;100639.50;;;14.35;33.00
57024;BME280;42916;54.346;18.562;2023-04-28T13:29:12;100635.30;;;14.07;32.87